createdAt,value
2023-08-26T00:02:09.434Z,14.40
2023-08-26T00:05:11.440Z,15.40
2023-08-26T00:08:13.243Z,15.70
2023-08-26T00:11:15.081Z,14.25
2023-08-26T00:14:16.919Z,12.35
2023-08-26T00:17:19.098Z,14.82
2023-08-26T00:20:22.802Z,15.38
2023-08-26T00:23:24.908Z,14.25
2023-08-26T00:26:26.761Z,16.63
2023-08-26T00:29:28.641Z,17.25
2023-08-26T00:32:30.866Z,24.10
2023-08-26T00:35:32.765Z,18.30
2023-08-26T00:38:34.624Z,15.23
2023-08-26T00:41:36.517Z,19.85
2023-08-26T00:44:38.320Z,15.68
2023-08-26T00:47:40.965Z,18.85
2023-08-26T00:50:48.984Z,22.67
2023-08-26T00:53:50.964Z,14.13
2023-08-26T00:56:52.916Z,16.92
2023-08-26T00:59:54.955Z,15.75
2023-08-26T01:02:57.156Z,13.98
2023-08-26T01:05:59.097Z,16.73
2023-08-26T01:09:01.344Z,19.27
2023-08-26T01:12:27.529Z,14.40
2023-08-26T01:15:30.722Z,15.30
2023-08-26T01:18:32.750Z,14.25
2023-08-26T01:21:37.604Z,15.85
2023-08-26T01:24:42.269Z,16.83
2023-08-26T01:27:44.377Z,14.95
2023-08-26T01:30:46.849Z,14.25
2023-08-26T01:34:18.576Z,18.33
2023-08-26T01:37:21.806Z,14.82
2023-08-26T01:40:24.789Z,14.95
2023-08-26T01:43:27.384Z,17.67
2023-08-26T01:46:38.661Z,14.75
2023-08-26T01:49:40.696Z,17.17
2023-08-26T01:52:42.999Z,15.23
2023-08-26T01:55:46.095Z,13.18
2023-08-26T01:58:49.781Z,13.73
2023-08-26T02:01:51.687Z,14.82
2023-08-26T02:04:54.276Z,13.65
2023-08-26T02:07:56.488Z,15.43
2023-08-26T02:10:59.091Z,16.45
2023-08-26T02:14:01.135Z,14.27
2023-08-26T02:17:03.924Z,14.43
2023-08-26T02:20:08.642Z,16.00
2023-08-26T02:23:13.996Z,13.93
2023-08-26T02:26:15.924Z,15.57
2023-08-26T02:29:18.749Z,15.70
2023-08-26T02:32:20.583Z,11.68
2023-08-26T02:35:22.473Z,17.95
2023-08-26T02:38:24.295Z,17.10
2023-08-26T02:41:26.198Z,12.63
2023-08-26T02:44:28.090Z,12.73
2023-08-26T02:47:30.605Z,18.77
2023-08-26T02:50:35.536Z,13.95
2023-08-26T02:53:38.622Z,14.80
2023-08-26T02:56:40.527Z,15.55
2023-08-26T02:59:42.420Z,12.52
2023-08-26T03:02:44.339Z,12.63
2023-08-26T03:05:46.472Z,11.00
2023-08-26T03:08:48.401Z,16.70
2023-08-26T03:11:50.377Z,14.18
2023-08-26T03:14:53.864Z,13.77
2023-08-26T03:17:58.415Z,13.85
2023-08-26T03:21:08.373Z,12.50
2023-08-26T03:24:13.106Z,14.02
2023-08-26T03:27:15.012Z,13.52
2023-08-26T03:30:17.248Z,14.50
2023-08-26T03:33:19.562Z,17.33
2023-08-26T03:36:21.557Z,22.05
2023-08-26T03:39:23.439Z,12.80
2023-08-26T03:42:25.592Z,12.95
2023-08-26T03:45:31.007Z,11.65
2023-08-26T03:48:34.354Z,11.98
2023-08-26T03:51:36.237Z,18.75
2023-08-26T03:54:38.132Z,12.73
2023-08-26T03:57:39.991Z,11.90
2023-08-26T04:00:42.340Z,14.68
2023-08-26T04:03:47.041Z,12.73
2023-08-26T04:06:49.106Z,14.75
2023-08-26T04:09:51.013Z,12.95
2023-08-26T04:12:53.086Z,20.42
2023-08-26T04:15:59.721Z,13.85
2023-08-26T04:19:01.791Z,12.77
2023-08-26T04:22:03.766Z,15.30
2023-08-26T04:25:08.035Z,12.23
2023-08-26T04:28:09.985Z,12.93
2023-08-26T04:31:13.018Z,12.88
2023-08-26T04:34:14.971Z,11.75
2023-08-26T04:37:16.758Z,13.32
2023-08-26T04:40:19.857Z,16.25
2023-08-26T04:43:21.777Z,15.00
2023-08-26T04:46:25.384Z,10.80
2023-08-26T04:49:27.503Z,16.15
2023-08-26T04:52:29.328Z,15.15
2023-08-26T04:55:34.019Z,14.45
2023-08-26T04:58:38.605Z,13.60
2023-08-26T05:01:40.784Z,12.15
2023-08-26T05:04:42.688Z,13.57
2023-08-26T05:07:44.566Z,9.85
2023-08-26T05:10:48.206Z,17.08
2023-08-26T05:13:50.063Z,12.80
2023-08-26T05:16:52.466Z,10.23
2023-08-26T05:19:54.383Z,13.77
2023-08-26T05:22:58.082Z,11.95
2023-08-26T05:26:00.005Z,11.38
2023-08-26T05:29:02.498Z,10.02
2023-08-26T05:32:04.614Z,11.07
2023-08-26T05:35:06.828Z,15.60
2023-08-26T05:38:08.776Z,11.52
2023-08-26T05:41:13.305Z,14.57
2023-08-26T05:44:15.489Z,12.73
2023-08-26T05:47:17.390Z,13.77
2023-08-26T05:50:19.537Z,11.95
2023-08-26T05:53:21.379Z,8.95
2023-08-26T05:56:23.272Z,11.18
2023-08-26T05:59:25.106Z,10.90
2023-08-26T06:02:27.189Z,13.60
2023-08-26T06:05:29.130Z,14.00
2023-08-26T06:08:31.215Z,12.07
2023-08-26T06:11:33.177Z,8.95
2023-08-26T06:14:35.472Z,12.05
2023-08-26T06:17:37.394Z,14.52
2023-08-26T06:20:39.319Z,11.15
2023-08-26T06:23:41.346Z,10.85
2023-08-26T06:26:45.237Z,16.45
2023-08-26T06:29:55.266Z,15.38
2023-08-26T06:32:57.790Z,11.98
2023-08-26T06:36:01.996Z,9.57
2023-08-26T06:39:05.199Z,15.45
2023-08-26T06:42:07.526Z,11.25
2023-08-26T06:45:16.809Z,9.98
2023-08-26T06:48:19.931Z,14.40
2023-08-26T06:51:21.819Z,15.82
2023-08-26T06:54:23.742Z,20.90
2023-08-26T06:57:26.153Z,14.35
2023-08-26T07:00:28.104Z,14.10
2023-08-26T07:03:30.375Z,12.82
2023-08-26T07:06:32.805Z,12.50
2023-08-26T07:09:34.635Z,11.77
2023-08-26T07:12:39.225Z,10.65
2023-08-26T07:15:41.642Z,16.50
2023-08-26T07:18:43.629Z,15.75
2023-08-26T07:21:45.567Z,14.50
2023-08-26T07:24:48.053Z,10.05
2023-08-26T07:27:49.919Z,10.80
2023-08-26T07:30:53.056Z,8.73
2023-08-26T07:33:54.872Z,9.75
2023-08-26T07:36:57.034Z,9.95
2023-08-26T07:40:02.334Z,9.13
2023-08-26T07:43:04.982Z,11.93
2023-08-26T07:49:11.763Z,11.13
2023-08-26T07:52:14.643Z,10.10
2023-08-26T07:55:16.746Z,11.45
2023-08-26T07:58:18.570Z,10.65
2023-08-26T08:01:21.729Z,14.85
2023-08-26T08:04:23.672Z,10.05
2023-08-26T08:07:25.639Z,9.80
2023-08-26T08:10:27.591Z,8.50
2023-08-26T08:13:29.468Z,13.73
2023-08-26T08:16:31.330Z,9.50
2023-08-26T08:19:38.710Z,11.93
2023-08-26T08:22:42.903Z,6.65
2023-08-26T08:25:44.976Z,9.38
2023-08-26T08:28:46.863Z,9.82
2023-08-26T08:31:48.762Z,10.82
2023-08-26T08:34:50.916Z,10.98
2023-08-26T08:37:53.109Z,7.25
2023-08-26T08:40:55.252Z,8.93
2023-08-26T08:44:03.594Z,16.13
2023-08-26T08:47:06.058Z,9.52
2023-08-26T08:50:09.549Z,7.43
2023-08-26T08:53:14.096Z,14.40
2023-08-26T08:56:20.576Z,12.05
2023-08-26T08:59:23.380Z,10.40
2023-08-26T09:02:28.052Z,7.82
2023-08-26T09:05:30.396Z,9.15
2023-08-26T09:08:33.074Z,9.40
2023-08-26T09:11:35.748Z,7.28
2023-08-26T09:14:39.908Z,7.10
2023-08-26T09:17:48.878Z,6.57
2023-08-26T09:20:50.798Z,7.47
2023-08-26T09:23:52.727Z,11.27
2023-08-26T09:27:02.104Z,11.15
2023-08-26T09:30:05.417Z,13.75
2023-08-26T09:33:15.454Z,10.13
2023-08-26T09:39:23.431Z,8.13
2023-08-26T09:42:25.645Z,9.00
2023-08-26T09:45:27.635Z,10.35
2023-08-26T09:48:29.607Z,9.73
2023-08-26T09:51:32.083Z,11.38
2023-08-26T09:54:35.714Z,8.48
2023-08-26T09:57:37.824Z,9.10
2023-08-26T10:00:39.816Z,8.60
2023-08-26T10:03:45.760Z,12.32
2023-08-26T10:06:56.888Z,13.40
2023-08-26T10:10:09.228Z,8.63
2023-08-26T10:13:11.527Z,11.43
2023-08-26T10:16:22.941Z,8.60
2023-08-26T10:19:31.326Z,12.43
2023-08-26T10:22:37.461Z,14.45
2023-08-26T10:25:41.347Z,11.00
2023-08-26T10:28:44.256Z,10.25
2023-08-26T10:31:48.104Z,12.82
2023-08-26T10:35:00.433Z,14.23
2023-08-26T10:38:10.722Z,12.80
2023-08-26T10:41:13.220Z,14.23
2023-08-26T10:44:15.460Z,8.80
2023-08-26T10:47:40.168Z,11.82
2023-08-26T10:50:48.000Z,7.97
2023-08-26T10:53:50.101Z,9.70
2023-08-26T10:57:08.912Z,6.18
2023-08-26T11:00:14.452Z,7.35
2023-08-26T11:03:19.771Z,14.70
2023-08-26T11:06:23.638Z,8.93
2023-08-26T11:09:30.355Z,8.23
2023-08-26T11:12:37.088Z,10.10
2023-08-26T11:15:43.495Z,8.25
2023-08-26T11:18:46.936Z,7.35
2023-08-26T11:21:48.929Z,9.00
2023-08-26T11:24:52.528Z,6.75
2023-08-26T11:28:06.648Z,17.65
2023-08-26T11:31:08.545Z,10.70
2023-08-26T11:34:10.686Z,6.85
2023-08-26T11:37:12.566Z,6.90
2023-08-26T11:40:15.404Z,8.82
2023-08-26T11:43:19.652Z,5.93
2023-08-26T11:46:21.905Z,10.00
2023-08-26T11:49:24.793Z,10.15
2023-08-26T11:52:36.746Z,6.50
2023-08-26T11:55:40.278Z,6.32
2023-08-26T11:58:42.192Z,13.02
2023-08-26T12:01:44.101Z,5.38
2023-08-26T12:04:46.886Z,8.30
2023-08-26T12:07:51.172Z,8.93
2023-08-26T12:10:54.558Z,6.97
2023-08-26T12:13:56.612Z,9.60
2023-08-26T12:17:05.870Z,5.68
2023-08-26T12:20:20.698Z,8.57
2023-08-26T12:23:22.921Z,7.15
2023-08-26T12:26:24.885Z,5.93
2023-08-26T12:29:26.761Z,5.57
2023-08-26T12:32:29.050Z,5.40
2023-08-26T12:35:32.428Z,10.88
2023-08-26T12:38:35.026Z,13.43
2023-08-26T12:41:36.889Z,7.40
2023-08-26T12:44:39.925Z,5.80
2023-08-26T12:47:44.086Z,8.18
2023-08-26T12:50:46.848Z,10.55
2023-08-26T12:53:48.865Z,6.95
2023-08-26T12:56:51.203Z,11.07
2023-08-26T12:59:53.062Z,9.50
2023-08-26T13:02:55.133Z,4.85
2023-08-26T13:05:57.143Z,6.97
2023-08-26T13:08:59.124Z,6.80
2023-08-26T13:12:01.075Z,7.95
2023-08-26T13:15:03.474Z,5.68
2023-08-26T13:18:05.704Z,5.57
2023-08-26T13:21:07.606Z,10.75
2023-08-26T13:24:10.756Z,6.63
2023-08-26T13:27:12.772Z,8.00
2023-08-26T13:30:14.691Z,6.90
2023-08-26T13:33:16.614Z,8.35
2023-08-26T13:36:19.028Z,6.80
2023-08-26T13:39:20.963Z,7.93
2023-08-26T13:42:22.855Z,7.32
2023-08-26T13:45:24.879Z,12.82
2023-08-26T13:48:26.913Z,9.52
2023-08-26T13:51:29.985Z,8.93
2023-08-26T13:54:31.861Z,6.32
2023-08-26T13:57:34.610Z,11.40
2023-08-26T14:00:36.597Z,6.20
2023-08-26T14:03:38.936Z,7.68
2023-08-26T14:06:41.311Z,6.88
2023-08-26T14:09:44.429Z,6.07
2023-08-26T14:12:46.641Z,8.52
2023-08-26T14:15:50.080Z,10.77
2023-08-26T14:18:52.087Z,9.00
2023-08-26T14:21:54.073Z,7.20
2023-08-26T14:24:56.063Z,9.05
2023-08-26T14:27:59.882Z,6.57
2023-08-26T14:31:04.556Z,9.88
2023-08-26T14:34:06.529Z,7.20
2023-08-26T14:37:08.471Z,5.47
2023-08-26T14:40:10.649Z,7.28
2023-08-26T14:43:13.849Z,9.75
2023-08-26T14:46:15.862Z,12.40
2023-08-26T14:49:18.708Z,7.45
2023-08-26T14:52:20.591Z,7.85
2023-08-26T14:55:22.579Z,6.70
2023-08-26T14:58:25.902Z,12.57
2023-08-26T15:01:27.981Z,7.28
2023-08-26T15:04:29.875Z,7.95
2023-08-26T15:07:31.739Z,9.45
2023-08-26T15:10:33.642Z,11.68
2023-08-26T15:13:35.843Z,10.38
2023-08-26T15:16:37.836Z,9.90
2023-08-26T15:19:39.924Z,11.38
2023-08-26T15:22:41.819Z,5.20
2023-08-26T15:25:48.243Z,5.93
2023-08-26T15:28:50.251Z,8.65
2023-08-26T15:31:52.273Z,8.95
2023-08-26T15:34:54.343Z,7.85
2023-08-26T15:37:57.050Z,7.82
2023-08-26T15:41:04.580Z,7.20
2023-08-26T15:44:06.843Z,8.15
2023-08-26T15:47:09.079Z,9.23
2023-08-26T15:50:11.449Z,8.50
2023-08-26T15:53:14.851Z,7.68
2023-08-26T15:56:16.956Z,7.55
2023-08-26T15:59:19.093Z,16.13
2023-08-26T16:02:21.219Z,12.55
2023-08-26T16:05:23.571Z,13.05
2023-08-26T16:08:25.581Z,15.00
2023-08-26T16:11:31.689Z,9.80
2023-08-26T16:14:36.250Z,11.77
2023-08-26T16:17:38.328Z,19.75
2023-08-26T16:20:41.349Z,14.15
2023-08-26T16:23:43.289Z,10.23
2023-08-26T16:26:45.482Z,13.57
2023-08-26T16:29:47.949Z,8.80
2023-08-26T16:32:51.494Z,12.82
2023-08-26T16:35:53.505Z,15.02
2023-08-26T16:38:55.445Z,9.60
2023-08-26T16:41:57.354Z,15.85
2023-08-26T16:44:59.267Z,10.90
2023-08-26T16:48:01.255Z,20.58
2023-08-26T16:51:03.445Z,7.95
2023-08-26T16:54:06.355Z,23.77
2023-08-26T16:57:09.185Z,17.70
2023-08-26T17:00:11.858Z,15.70
2023-08-26T17:03:14.318Z,15.35
2023-08-26T17:06:16.405Z,13.02
2023-08-26T17:09:18.418Z,13.90
2023-08-26T17:12:20.323Z,12.90
2023-08-26T17:15:22.317Z,13.18
2023-08-26T17:18:24.922Z,17.40
2023-08-26T17:21:26.849Z,17.25
2023-08-26T17:24:28.855Z,14.15
2023-08-26T17:27:33.414Z,13.93
2023-08-26T17:30:35.891Z,14.40
2023-08-26T17:33:39.431Z,16.25
2023-08-26T17:36:41.349Z,12.52
2023-08-26T17:39:44.432Z,11.25
2023-08-26T17:42:49.412Z,13.70
2023-08-26T17:45:54.775Z,11.45
2023-08-26T17:48:56.878Z,20.50
2023-08-26T17:51:58.965Z,14.10
2023-08-26T17:55:01.017Z,13.35
2023-08-26T17:58:03.762Z,10.27
2023-08-26T18:01:05.890Z,14.52
2023-08-26T18:04:08.357Z,13.45
2023-08-26T18:07:10.248Z,11.80
2023-08-26T18:10:12.218Z,9.73
2023-08-26T18:13:14.777Z,11.40
2023-08-26T18:16:16.852Z,10.98
2023-08-26T18:19:18.912Z,11.77
2023-08-26T18:22:20.810Z,11.45
2023-08-26T18:25:22.935Z,16.73
2023-08-26T18:28:24.798Z,15.88
2023-08-26T18:31:26.821Z,20.23
2023-08-26T18:34:28.819Z,16.58
2023-08-26T18:37:32.574Z,17.02
2023-08-26T18:40:34.397Z,14.13
2023-08-26T18:43:36.367Z,15.57
2023-08-26T18:46:38.565Z,17.50
2023-08-26T18:49:40.470Z,15.18
2023-08-26T18:52:42.502Z,15.77
2023-08-26T18:55:50.498Z,17.60
2023-08-26T18:58:52.373Z,16.70
2023-08-26T19:01:54.295Z,17.35
2023-08-26T19:04:56.428Z,15.55
2023-08-26T19:07:58.289Z,20.85
2023-08-26T19:11:00.161Z,17.63
2023-08-26T19:14:02.100Z,14.43
2023-08-26T19:17:04.172Z,16.58
2023-08-26T19:20:07.002Z,15.38
2023-08-26T19:23:08.925Z,14.82
2023-08-26T19:26:11.461Z,17.05
2023-08-26T19:29:13.363Z,16.77
2023-08-26T19:32:15.285Z,25.15
2023-08-26T19:35:17.288Z,21.35
2023-08-26T19:38:19.264Z,15.98
2023-08-26T19:41:21.275Z,14.98
2023-08-26T19:44:23.375Z,18.00
2023-08-26T19:47:25.330Z,18.33
2023-08-26T19:50:27.252Z,19.65
2023-08-26T19:53:29.174Z,21.33
2023-08-26T19:56:31.105Z,21.75
2023-08-26T19:59:33.000Z,22.45
2023-08-26T20:02:34.923Z,19.83
2023-08-26T20:05:37.294Z,20.42
2023-08-26T20:08:39.176Z,20.85
2023-08-26T20:11:41.092Z,20.25
2023-08-26T20:14:43.126Z,21.75
2023-08-26T20:17:45.040Z,25.20
2023-08-26T20:20:47.026Z,22.08
2023-08-26T20:23:48.923Z,21.08
2023-08-26T20:26:50.861Z,17.40
2023-08-26T20:29:52.983Z,19.98
2023-08-26T20:32:54.872Z,20.38
2023-08-26T20:35:57.794Z,21.13
2023-08-26T20:38:59.776Z,19.02
2023-08-26T20:42:04.143Z,20.38
2023-08-26T20:45:07.690Z,24.67
2023-08-26T20:48:09.564Z,17.20
2023-08-26T20:51:11.438Z,21.70
2023-08-26T20:54:13.406Z,22.35
2023-08-26T20:57:15.279Z,18.17
2023-08-26T21:00:17.293Z,19.52
2023-08-26T21:03:19.243Z,18.45
2023-08-26T21:06:21.305Z,21.35
2023-08-26T21:09:23.273Z,21.92
2023-08-26T21:12:25.660Z,20.17
2023-08-26T21:15:28.120Z,19.90
2023-08-26T21:18:30.162Z,21.98
2023-08-26T21:21:32.054Z,18.83
2023-08-26T21:24:33.967Z,18.92
2023-08-26T21:27:37.458Z,21.20
2023-08-26T21:30:39.438Z,17.73
2023-08-26T21:33:41.737Z,24.88
2023-08-26T21:36:43.739Z,16.50
2023-08-26T21:39:46.852Z,17.90
2023-08-26T21:42:48.749Z,19.45
2023-08-26T21:45:51.823Z,18.67
2023-08-26T21:48:53.739Z,18.20
2023-08-26T21:51:55.597Z,19.80
2023-08-26T21:54:57.462Z,18.70
2023-08-26T21:58:07.290Z,18.23
2023-08-26T22:01:09.989Z,17.23
2023-08-26T22:04:12.085Z,19.27
2023-08-26T22:07:14.290Z,15.57
2023-08-26T22:10:16.187Z,19.10
2023-08-26T22:13:18.702Z,19.20
2023-08-26T22:16:20.789Z,13.93
2023-08-26T22:19:23.224Z,15.80
2023-08-26T22:22:25.106Z,22.20
2023-08-26T22:25:26.979Z,16.20
2023-08-26T22:28:28.956Z,15.95
2023-08-26T22:31:31.111Z,12.82
2023-08-26T22:34:33.253Z,15.68
2023-08-26T22:37:35.808Z,15.80
2023-08-26T22:40:37.637Z,14.95
2023-08-26T22:43:39.431Z,15.88
2023-08-26T22:46:41.328Z,14.65
2023-08-26T22:49:43.238Z,20.75
2023-08-26T22:52:45.080Z,18.05
2023-08-26T22:55:47.090Z,16.25
2023-08-26T22:58:49.716Z,15.32
2023-08-26T23:01:51.625Z,14.48
2023-08-26T23:04:53.539Z,15.77
2023-08-26T23:07:55.535Z,18.13
2023-08-26T23:10:59.378Z,19.80
2023-08-26T23:14:01.191Z,14.07
2023-08-26T23:17:03.415Z,13.05
2023-08-26T23:20:08.955Z,14.38
2023-08-26T23:23:11.164Z,14.02
2023-08-26T23:26:12.979Z,13.10
2023-08-26T23:29:15.285Z,14.73
2023-08-26T23:32:17.533Z,15.27
2023-08-26T23:35:19.677Z,19.83
2023-08-26T23:38:21.591Z,14.57
2023-08-26T23:41:23.429Z,11.20
2023-08-26T23:44:25.351Z,12.98
2023-08-26T23:47:30.311Z,14.98
2023-08-26T23:50:32.210Z,12.55
2023-08-26T23:53:34.201Z,19.75
2023-08-26T23:56:36.164Z,12.75
2023-08-26T23:59:38.882Z,18.85
